Time,TemperatureF,DewpointF,PressureIn,WindDirection,WindDirectionDegrees,WindSpeedMPH,WindSpeedGustMPH,Humidity,HourlyPrecipIn,Conditions,Clouds,dailyrainin,SoftwareType,DateUTC
2013-08-15 00:12:00,66.0,61.0,30.01,South,188,0.0,3.0,84,0.00,,,0.01,,2013-08-15 05:12:00,
2013-08-15 00:22:00,66.0,61.0,30.01,South,176,0.0,3.0,85,0.00,,,0.01,,2013-08-15 05:22:00,
2013-08-15 00:42:00,66.0,61.0,30.00,South,180,0.0,3.0,85,0.00,,,0.01,,2013-08-15 05:42:00,
2013-08-15 00:52:00,66.0,62.0,30.01,SSW,203,0.0,2.0,86,0.00,,,0.01,,2013-08-15 05:52:00,
2013-08-15 01:11:00,66.0,62.0,30.00,SSW,201,0.0,3.0,86,0.00,,,0.01,,2013-08-15 06:11:00,
2013-08-15 01:21:00,66.0,62.0,30.00,South,178,0.0,3.0,86,0.00,,,0.01,,2013-08-15 06:21:00,
2013-08-15 01:42:00,66.0,62.0,29.99,South,186,0.0,3.0,86,0.00,,,0.01,,2013-08-15 06:42:00,
2013-08-15 01:52:00,65.0,61.0,29.99,South,176,0.0,3.0,87,0.00,,,0.01,,2013-08-15 06:52:00,
2013-08-15 02:11:00,65.0,61.0,29.98,SSE,167,0.0,5.0,88,0.00,,,0.01,,2013-08-15 07:11:00,
2013-08-15 02:21:00,66.0,62.0,29.98,South,182,0.0,4.0,87,0.00,,,0.01,,2013-08-15 07:21:00,
2013-08-15 02:41:00,66.0,62.0,29.98,South,180,0.0,4.0,86,0.00,,,0.01,,2013-08-15 07:41:00,
2013-08-15 02:52:00,66.0,62.0,29.98,South,184,0.0,4.0,86,0.00,,,0.01,,2013-08-15 07:52:00,
2013-08-15 03:11:00,65.0,61.0,29.97,South,191,0.0,4.0,87,0.00,,,0.01,,2013-08-15 08:11:00,
2013-08-15 03:21:00,65.0,61.0,29.97,South,188,0.0,3.0,87,0.00,,,0.01,,2013-08-15 08:21:00,
2013-08-15 03:42:00,65.0,61.0,29.97,SSW,200,0.0,2.0,88,0.00,,,0.01,,2013-08-15 08:42:00,
2013-08-15 03:52:00,65.0,61.0,29.97,South,180,0.0,4.0,88,0.00,,,0.01,,2013-08-15 08:52:00,
2013-08-15 04:11:00,65.0,61.0,29.97,South,181,0.0,3.0,88,0.00,,,0.01,,2013-08-15 09:11:00,
2013-08-15 04:21:00,65.0,61.0,29.97,SSW,193,0.0,2.0,88,0.00,,,0.01,,2013-08-15 09:21:00,
2013-08-15 04:42:00,66.0,62.0,29.97,South,181,0.0,3.0,86,0.00,,,0.01,,2013-08-15 09:42:00,
2013-08-15 04:53:00,66.0,62.0,29.96,South,177,0.0,2.0,86,0.00,,,0.01,,2013-08-15 09:53:00,
2013-08-15 05:12:00,66.0,62.0,29.96,South,184,0.0,4.0,87,0.00,,,0.01,,2013-08-15 10:12:00,
2013-08-15 05:22:00,65.0,61.0,29.96,South,183,1.0,6.0,88,0.00,,,0.01,,2013-08-15 10:22:00,
2013-08-15 05:42:00,65.0,61.0,29.95,South,182,0.0,5.0,88,0.00,,,0.01,,2013-08-15 10:42:00,
2013-08-15 05:52:00,64.0,61.0,29.96,South,181,0.0,4.0,89,0.00,,,0.01,,2013-08-15 10:52:00,
2013-08-15 06:11:00,64.0,61.0,29.96,SSW,206,0.0,4.0,89,0.00,,,0.01,,2013-08-15 11:11:00,
2013-08-15 06:22:00,64.0,61.0,29.95,SSW,209,0.0,3.0,90,0.00,,,0.01,,2013-08-15 11:22:00,
2013-08-15 06:42:00,64.0,61.0,29.95,South,180,0.0,4.0,90,0.00,,,0.01,,2013-08-15 11:42:00,
2013-08-15 06:52:00,64.0,61.0,29.95,SSE,167,0.0,2.0,91,0.00,,,0.01,,2013-08-15 11:52:00,
2013-08-15 07:11:00,64.0,61.0,29.95,SSW,200,0.0,3.0,91,0.00,,,0.00,,2013-08-15 12:11:00,
2013-08-15 07:21:00,64.0,61.0,29.95,SSW,202,0.0,2.0,91,0.01,,,0.01,,2013-08-15 12:21:00,
2013-08-15 07:42:00,63.0,60.0,29.96,South,182,0.0,4.0,91,0.01,,,0.01,,2013-08-15 12:42:00,
2013-08-15 07:52:00,63.0,60.0,29.96,South,184,0.0,4.0,91,0.01,,,0.01,,2013-08-15 12:52:00,
2013-08-15 08:11:00,63.0,61.0,29.96,South,186,0.0,3.0,92,0.01,,,0.01,,2013-08-15 13:11:00,
2013-08-15 08:21:00,63.0,60.0,29.96,South,179,0.0,2.0,91,0.00,,,0.01,,2013-08-15 13:21:00,
2013-08-15 08:42:00,64.0,62.0,29.98,WSW,243,0.0,2.0,92,0.00,,,0.01,,2013-08-15 13:42:00,
2013-08-15 08:52:00,64.0,62.0,29.97,SSW,201,2.0,10.0,93,0.04,,,0.05,,2013-08-15 13:52:00,
2013-08-15 09:12:00,64.0,62.0,29.96,SW,216,2.0,16.0,93,0.30,,,0.31,,2013-08-15 14:12:00,
2013-08-15 09:22:00,65.0,63.0,29.95,SSW,208,3.0,11.0,92,0.39,,,0.40,,2013-08-15 14:22:00,
2013-08-15 09:53:00,65.0,63.0,29.94,SSW,209,1.0,7.0,93,0.34,,,0.40,,2013-08-15 14:53:00,
2013-08-15 10:14:00,67.0,65.0,29.94,South,185,1.0,6.0,92,0.08,,,0.40,,2013-08-15 15:14:00,
2013-08-15 10:23:00,68.0,65.0,29.94,South,171,0.0,6.0,89,0.00,,,0.40,,2013-08-15 15:23:00,
2013-08-15 10:43:00,69.0,65.0,29.94,SSW,212,1.0,7.0,87,0.00,,,0.40,,2013-08-15 15:43:00,
2013-08-15 10:54:00,70.0,66.0,29.95,SSE,158,1.0,6.0,87,0.00,,,0.40,,2013-08-15 15:54:00,
2013-08-15 11:14:00,71.0,66.0,29.95,SE,142,1.0,7.0,84,0.00,,,0.40,,2013-08-15 16:14:00,
2013-08-15 11:26:00,72.0,67.0,29.95,South,176,0.0,6.0,83,0.00,,,0.40,,2013-08-15 16:26:00,
2013-08-15 11:44:00,73.0,66.0,29.94,South,185,2.0,8.0,78,0.00,,,0.40,,2013-08-15 16:44:00,
2013-08-15 11:55:00,73.0,66.0,29.94,SSW,194,1.0,4.0,78,0.00,,,0.40,,2013-08-15 16:55:00,
2013-08-15 12:18:00,72.0,65.0,29.94,SSE,154,1.0,5.0,79,0.00,,,0.40,,2013-08-15 17:18:00,
2013-08-15 12:30:00,72.0,-99.9,29.94,East,85,0.0,3.0,81,0.00,,,0.40,,2013-08-15 17:30:00,
2013-08-15 12:55:00,73.0,66.0,29.94,South,175,0.0,3.0,79,0.00,,,0.40,,2013-08-15 17:55:00,
2013-08-15 13:00:00,-999.0,-99.9,29.93,South,185,0.0,5.0,-999,-99.99,,,-99.99,,2013-08-15 18:00:00,
2013-08-15 13:35:00,-999.0,-99.9,29.93,SE,131,1.0,6.0,-999,0.00,,,0.40,,2013-08-15 18:35:00,
2013-08-15 13:49:00,76.0,69.0,29.93,WSW,248,0.0,3.0,78,0.00,,,0.40,,2013-08-15 18:49:00,
2013-08-15 14:17:00,76.0,67.0,29.93,ESE,121,0.0,5.0,73,0.00,,,0.40,,2013-08-15 19:17:00,
2013-08-15 14:34:00,-999.0,-99.9,29.92,SSE,162,1.0,5.0,-999,-99.99,,,-99.99,,2013-08-15 19:34:00,
2013-08-15 14:49:00,77.0,66.0,29.93,SE,130,2.0,5.0,70,0.00,,,0.40,,2013-08-15 19:49:00,
2013-08-15 15:05:00,77.0,67.0,29.92,NE,42,1.0,7.0,71,0.00,,,0.40,,2013-08-15 20:05:00,
2013-08-15 15:31:00,78.0,67.0,29.92,ENE,57,1.0,6.0,70,0.00,,,0.40,,2013-08-15 20:31:00,
2013-08-15 15:54:00,78.0,66.0,29.91,SSE,157,1.0,7.0,67,0.00,,,0.40,,2013-08-15 20:54:00,
2013-08-15 16:17:00,79.0,67.0,29.90,SSE,157,0.0,3.0,67,0.00,,,0.40,,2013-08-15 21:17:00,
2013-08-15 16:38:00,79.0,66.0,29.90,SE,142,0.0,8.0,65,0.00,,,0.40,,2013-08-15 21:38:00,
2013-08-15 16:57:00,79.0,67.0,29.90,South,190,0.0,3.0,67,0.00,,,0.40,,2013-08-15 21:57:00,
2013-08-15 17:17:00,78.0,66.0,29.90,SSE,152,1.0,6.0,66,0.00,,,0.40,,2013-08-15 22:17:00,
2013-08-15 17:29:00,79.0,67.0,29.89,SSE,168,0.0,6.0,67,0.00,,,0.40,,2013-08-15 22:29:00,
2013-08-15 17:58:00,79.0,67.0,29.89,East,90,1.0,5.0,67,0.00,,,0.40,,2013-08-15 22:58:00,
2013-08-15 18:16:00,78.0,68.0,29.90,NE,46,1.0,5.0,71,0.00,,,0.40,,2013-08-15 23:16:00,
2013-08-15 18:34:00,-999.0,-99.9,29.90,NE,40,2.0,6.0,77,0.00,,,0.40,,2013-08-15 23:34:00,
2013-08-15 18:55:00,74.0,67.0,29.92,NNE,21,1.0,7.0,80,0.00,,,0.40,,2013-08-15 23:55:00,
2013-08-15 19:12:00,73.0,67.0,29.92,East,90,0.0,7.0,81,0.00,,,0.40,,2013-08-16 00:12:00,
2013-08-15 19:24:00,73.0,67.0,29.91,East,94,1.0,6.0,81,0.00,,,0.40,,2013-08-16 00:24:00,
2013-08-15 19:46:00,72.0,66.0,29.93,NE,50,1.0,5.0,81,0.00,,,0.40,,2013-08-16 00:46:00,
2013-08-15 19:52:00,72.0,66.0,29.93,ENE,69,1.0,8.0,82,0.00,,,0.40,,2013-08-16 00:52:00,
2013-08-15 20:20:00,71.0,66.0,29.93,North,10,1.0,6.0,83,0.00,,,0.40,,2013-08-16 01:20:00,
2013-08-15 20:26:00,71.0,66.0,29.94,NNE,17,1.0,8.0,83,0.00,,,0.40,,2013-08-16 01:26:00,
2013-08-15 20:43:00,-999.0,-99.9,29.95,ESE,110,1.0,-999.0,-999,-99.99,,,-99.99,,2013-08-16 01:43:00,
2013-08-15 20:54:00,70.0,65.0,29.96,SSE,165,0.0,6.0,83,0.00,,,0.40,,2013-08-16 01:54:00,
2013-08-15 21:12:00,69.0,64.0,29.96,NE,36,0.0,6.0,83,0.00,,,0.40,,2013-08-16 02:12:00,
2013-08-15 21:21:00,68.0,63.0,29.96,NNE,25,0.0,4.0,84,0.00,,,0.40,,2013-08-16 02:21:00,
2013-08-15 21:43:00,68.0,64.0,29.96,ENE,66,0.0,3.0,86,0.00,,,0.40,,2013-08-16 02:43:00,
2013-08-15 21:52:00,67.0,63.0,29.98,NE,51,0.0,1.0,87,0.00,,,0.40,,2013-08-16 02:52:00,
2013-08-15 22:11:00,66.0,62.0,29.98,NNE,32,0.0,5.0,88,0.00,,,0.40,,2013-08-16 03:11:00,
2013-08-15 22:22:00,67.0,63.0,29.99,NE,51,0.0,2.0,88,0.00,,,0.40,,2013-08-16 03:22:00,
2013-08-15 22:43:00,66.0,62.0,29.99,NE,40,0.0,5.0,88,0.00,,,0.40,,2013-08-16 03:43:00,
2013-08-15 22:53:00,66.0,63.0,30.00,East,83,0.0,3.0,89,0.00,,,0.40,,2013-08-16 03:53:00,
2013-08-15 23:13:00,66.0,62.0,30.00,NE,40,0.0,2.0,88,0.00,,,0.40,,2013-08-16 04:13:00,
2013-08-15 23:23:00,66.0,62.0,30.01,ENE,74,0.0,4.0,88,0.00,,,0.40,,2013-08-16 04:23:00,
2013-08-15 23:42:00,66.0,62.0,30.01,East,101,0.0,4.0,88,0.00,,,0.40,,2013-08-16 04:42:00,
2013-08-15 23:53:00,66.0,62.0,30.01,NE,46,0.0,3.0,88,0.00,,,0.40,,2013-08-16 04:53:00,